EDT,Max TemperatureF,Mean TemperatureF,Min TemperatureF,Max Dew PointF,MeanDew PointF,Min DewpointF,Max Humidity, Mean Humidity, Min Humidity, Max Sea Level PressureIn, Mean Sea Level PressureIn, Min Sea Level PressureIn, Max VisibilityMiles, Mean VisibilityMiles, Min VisibilityMiles, Max Wind SpeedMPH, Mean Wind SpeedMPH, Max Gust SpeedMPH,PrecipitationIn, CloudCover, Events, WindDirDegrees
2012-3-1,79,70,62,61,54,26,94,76,14,29.91,29.86,29.79,10,10,7,18,11,30,0.00,4,,235
2012-3-2,81,66,51,59,50,39,94,71,42,29.94,29.82,29.67,10,10,4,12,5,18,0.06,7,Rain,61
2012-3-3,78,69,55,61,36,22,54,33,27,29.77,29.74,29.68,10,10,7,10,7,,0.00,7,Rain-Thunderstorm,14
2012-3-4,62,58,57,21,21,20,25,22,20,30.02,29.89,29.75,10,10,10,22,10,37,0.00,1,,272
2012-3-5,55,47,39,18,16,13,43,28,19,30.47,30.25,29.95,10,10,10,17,11,26,0.00,1,,317
2012-3-6,57,46,34,21,20,18,59,44,25,30.64,30.56,30.49,10,10,10,6,2,,0.00,0,,110
2012-3-7,64,54,44,47,44,34,69,59,50,30.60,30.50,30.42,10,10,10,8,4,,0.00,6,,136
2012-3-8,73,64,54,54,49,46,83,62,40,30.42,30.29,30.09,10,10,10,15,6,23,0.00,7,,204
2012-3-9,62,56,51,56,44,23,94,69,27,30.32,30.19,30.09,10,8,2,17,7,29,0.46,5,Rain,1
2012-3-10,63,52,42,26,21,15,51,33,16,30.51,30.42,30.32,10,10,10,13,8,20,0.00,0,,61
2012-3-11,64,52,39,44,34,26,65,48,30,30.57,30.48,30.41,10,10,10,8,5,,0.00,1,,83
2012-3-12,66,60,55,56,48,42,94,68,55,30.42,30.36,30.27,10,10,7,10,3,16,0.01,8,Rain,228
2012-3-13,75,66,57,61,57,55,94,78,51,30.27,30.22,30.13,10,10,6,13,4,,0.00,5,Rain,221
2012-3-14,82,68,55,61,53,40,100,69,23,30.26,30.21,30.16,10,6,0,10,3,,0.01,2,Fog,242
2012-3-15,84,68,53,55,48,44,83,51,25,30.27,30.22,30.17,10,10,10,13,2,16,0.00,1,,308
2012-3-16,84,70,57,55,53,50,87,58,32,30.24,30.18,30.11,10,10,9,13,6,20,0.01,2,Rain-Thunderstorm,280
2012-3-17,81,70,60,57,54,49,90,61,33,30.24,30.19,30.14,10,10,10,10,5,,0.00,4,Rain,280
2012-3-18,78,68,60,59,56,54,93,69,45,30.32,30.24,30.18,10,10,2,13,7,,0.15,2,Rain,58
2012-3-19,84,72,60,58,54,49,83,58,31,30.22,30.16,30.08,10,10,10,7,2,,0.00,0,,151
2012-3-20,86,73,62,58,55,53,80,57,34,30.21,30.15,30.10,10,10,10,12,3,16,0.00,1,,186
2012-3-21,80,70,60,59,56,52,90,64,39,30.31,30.23,30.16,10,10,8,9,3,,0.00,3,,128
2012-3-22,73,68,62,65,62,59,100,83,65,30.28,30.23,30.16,10,8,0,12,3,16,0.07,6,Fog-Rain,141
2012-3-23,79,68,62,65,62,60,100,85,61,30.16,30.08,29.96,10,8,0,20,3,26,0.06,6,Fog-Rain-Thunderstorm,190
2012-3-24,78,68,59,63,56,39,94,74,29,29.96,29.87,29.74,10,10,8,18,9,29,0.03,5,Rain-Thunderstorm,215
2012-3-25,69,62,57,48,46,43,72,57,47,29.89,29.81,29.73,10,10,10,18,7,29,0.00,4,Rain,345
2012-3-26,82,68,55,48,43,30,75,43,16,30.05,29.95,29.87,10,10,10,15,5,24,0.00,0,,357
2012-3-27,70,61,52,46,36,29,58,41,29,30.32,30.22,30.06,10,10,10,12,7,,0.00,0,,91
2012-3-28,81,66,51,57,50,37,94,62,35,30.23,30.12,29.95,10,9,5,16,6,24,0.00,2,,228
2012-3-29,84,72,60,60,52,50,69,53,31,29.97,29.93,29.88,10,10,9,12,6,18,0.02,2,,231
2012-3-30,81,68,57,60,52,40,93,61,33,30.00,29.92,29.86,10,10,5,14,4,25,0.13,4,Rain-Thunderstorm,107
2012-3-31,77,67,57,62,59,54,96,83,50,29.91,29.83,29.75,10,8,2,16,5,21,0.94,5,Rain-Thunderstorm,238